createdAt,value
2023-02-25T00:02:22.971Z,29.37
2023-02-25T00:07:29.023Z,29.55
2023-02-25T00:12:31.238Z,32.10
2023-02-25T00:17:34.101Z,27.37
2023-02-25T00:22:36.844Z,29.23
2023-02-25T00:27:38.944Z,28.50
2023-02-25T00:32:41.157Z,33.60
2023-02-25T00:37:43.894Z,28.30
2023-02-25T00:42:46.119Z,32.38
2023-02-25T00:47:48.383Z,33.47
2023-02-25T00:52:50.481Z,28.90
2023-02-25T00:57:52.553Z,31.35
2023-02-25T01:02:57.533Z,28.63
2023-02-25T01:07:59.645Z,25.33
2023-02-25T01:13:01.884Z,28.55
2023-02-25T01:18:04.734Z,27.23
2023-02-25T01:23:07.601Z,26.42
2023-02-25T01:28:09.715Z,27.83
2023-02-25T01:33:12.917Z,26.17
2023-02-25T01:38:15.029Z,27.67
2023-02-25T01:43:19.127Z,25.13
2023-02-25T01:48:25.290Z,30.33
2023-02-25T01:53:35.382Z,28.30
2023-02-25T01:58:39.080Z,25.92
2023-02-25T02:03:42.472Z,25.50
2023-02-25T02:08:46.411Z,27.13
2023-02-25T02:13:54.321Z,29.60
2023-02-25T02:18:59.799Z,29.43
2023-02-25T02:24:31.484Z,28.10
2023-02-25T02:29:39.320Z,26.00
2023-02-25T02:35:19.425Z,25.73
2023-02-25T02:40:41.257Z,21.23
2023-02-25T02:45:59.338Z,25.03
2023-02-25T02:51:06.435Z,30.27
2023-02-25T02:56:13.023Z,28.73
2023-02-25T03:01:22.208Z,24.60
2023-02-25T03:06:29.795Z,26.40
2023-02-25T03:11:31.947Z,23.73
2023-02-25T03:16:57.413Z,30.10
2023-02-25T03:22:07.309Z,23.75
2023-02-25T03:27:32.830Z,27.50
2023-02-25T03:32:37.849Z,23.12
2023-02-25T03:37:42.146Z,24.13
2023-02-25T03:42:50.406Z,28.10
2023-02-25T03:47:54.019Z,26.37
2023-02-25T03:52:56.297Z,28.07
2023-02-25T03:57:58.549Z,28.00
2023-02-25T04:03:01.016Z,23.77
2023-02-25T04:08:03.096Z,23.92
2023-02-25T04:13:05.962Z,23.95
2023-02-25T04:18:08.512Z,22.90
2023-02-25T04:23:15.318Z,26.50
2023-02-25T04:28:17.515Z,26.63
2023-02-25T04:33:19.647Z,22.35
2023-02-25T04:38:21.716Z,24.58
2023-02-25T04:43:23.762Z,25.47
2023-02-25T04:48:25.807Z,20.85
2023-02-25T04:53:27.912Z,18.27
2023-02-25T04:58:30.920Z,16.02
2023-02-25T05:03:33.644Z,18.10
2023-02-25T05:08:36.796Z,16.17
2023-02-25T05:13:38.910Z,15.65
2023-02-25T05:18:42.785Z,14.93
2023-02-25T05:23:46.909Z,14.05
2023-02-25T05:28:51.133Z,11.82
2023-02-25T05:33:53.510Z,13.43
2023-02-25T05:38:59.057Z,13.02
2023-02-25T05:44:01.243Z,10.83
2023-02-25T05:49:03.522Z,8.23
2023-02-25T05:54:05.678Z,8.38
2023-02-25T05:59:07.754Z,7.80
2023-02-25T06:04:10.015Z,9.27
2023-02-25T06:09:12.069Z,10.40
2023-02-25T06:14:15.187Z,7.97
2023-02-25T06:19:17.361Z,9.63
2023-02-25T06:24:19.422Z,9.83
2023-02-25T06:29:21.566Z,10.27
2023-02-25T06:34:23.685Z,9.47
2023-02-25T06:39:25.726Z,6.10
2023-02-25T06:44:29.273Z,6.57
2023-02-25T06:49:31.383Z,7.03
2023-02-25T06:54:33.510Z,5.35
2023-02-25T06:59:35.902Z,7.70
2023-02-25T07:04:37.971Z,6.87
2023-02-25T07:09:40.088Z,7.15
2023-02-25T07:14:42.240Z,6.13
2023-02-25T07:19:44.350Z,6.45
2023-02-25T07:24:46.505Z,8.67
2023-02-25T07:29:48.640Z,5.25
2023-02-25T07:34:50.749Z,6.10
2023-02-25T07:39:52.852Z,6.73
2023-02-25T07:44:55.281Z,6.22
2023-02-25T07:49:57.653Z,5.20
2023-02-25T07:54:59.741Z,4.82
2023-02-25T08:00:01.908Z,5.03
2023-02-25T08:05:04.626Z,5.07
2023-02-25T08:10:07.237Z,7.25
2023-02-25T08:15:09.672Z,5.17
2023-02-25T08:20:12.285Z,4.90
2023-02-25T08:25:14.775Z,4.97
2023-02-25T08:30:17.185Z,5.33
2023-02-25T08:35:19.390Z,4.93
2023-02-25T08:40:21.618Z,7.50
2023-02-25T08:45:24.014Z,6.82
2023-02-25T08:50:26.886Z,5.82
2023-02-25T08:55:29.372Z,8.23
2023-02-25T09:00:31.504Z,5.85
2023-02-25T09:05:34.245Z,5.27
2023-02-25T09:10:49.490Z,5.82
2023-02-25T09:15:58.751Z,6.50
2023-02-25T09:21:00.855Z,6.10
2023-02-25T09:26:09.556Z,6.35
2023-02-25T09:31:12.299Z,6.10
2023-02-25T09:36:17.734Z,5.55
2023-02-25T09:41:35.090Z,6.20
2023-02-25T09:46:53.525Z,5.87
2023-02-25T09:52:24.776Z,5.90
2023-02-25T09:57:28.012Z,6.60
2023-02-25T10:02:30.146Z,6.20
2023-02-25T10:07:43.218Z,5.28
2023-02-25T10:13:00.994Z,5.70
2023-02-25T10:18:37.468Z,5.28
2023-02-25T10:23:55.802Z,5.67
2023-02-25T10:29:07.421Z,4.40
2023-02-25T10:34:26.243Z,5.25
2023-02-25T10:39:29.441Z,7.23
2023-02-25T10:44:31.530Z,5.95
2023-02-25T10:49:38.640Z,6.80
2023-02-25T10:54:52.177Z,5.62
2023-02-25T11:00:03.029Z,4.05
2023-02-25T11:05:05.530Z,3.70
2023-02-25T11:10:12.491Z,4.12
2023-02-25T11:15:43.633Z,3.97
2023-02-25T11:20:57.162Z,5.87
2023-02-25T11:25:59.752Z,3.35
2023-02-25T11:31:24.083Z,3.47
2023-02-25T11:36:32.152Z,3.12
2023-02-25T11:41:34.261Z,3.90
2023-02-25T11:46:37.696Z,4.50
2023-02-25T11:51:48.558Z,4.47
2023-02-25T11:57:03.088Z,5.00
2023-02-25T12:02:17.276Z,3.87
2023-02-25T12:07:35.035Z,3.50
2023-02-25T12:13:11.180Z,3.75
2023-02-25T12:18:50.223Z,3.80
2023-02-25T12:24:22.566Z,4.60
2023-02-25T12:29:50.377Z,4.18
2023-02-25T12:35:39.835Z,10.00
2023-02-25T12:41:00.880Z,4.25
2023-02-25T12:46:15.221Z,4.72
2023-02-25T12:51:40.698Z,4.07
2023-02-25T12:57:04.502Z,4.95
2023-02-25T13:02:44.498Z,4.50
2023-02-25T13:08:23.686Z,4.95
2023-02-25T13:13:54.334Z,4.25
2023-02-25T13:19:25.749Z,4.20
2023-02-25T13:24:56.981Z,4.95
2023-02-25T13:30:01.814Z,4.50
2023-02-25T13:35:21.910Z,3.05
2023-02-25T13:41:01.264Z,3.83
2023-02-25T13:46:06.447Z,4.33
2023-02-25T13:51:24.887Z,4.20
2023-02-25T13:56:49.592Z,4.93
2023-02-25T14:02:25.403Z,4.03
2023-02-25T14:07:38.810Z,10.80
2023-02-25T14:12:49.952Z,3.83
2023-02-25T14:18:14.816Z,4.95
2023-02-25T14:23:33.390Z,3.87
2023-02-25T14:29:04.660Z,4.00
2023-02-25T14:34:15.792Z,4.18
2023-02-25T14:39:31.131Z,3.67
2023-02-25T14:44:42.808Z,4.22
2023-02-25T14:49:59.267Z,6.73
2023-02-25T14:55:26.428Z,4.57
2023-02-25T15:00:43.349Z,5.18
2023-02-25T15:05:45.490Z,4.97
2023-02-25T15:11:06.734Z,6.62
2023-02-25T15:16:26.887Z,5.93
2023-02-25T15:21:31.729Z,4.00
2023-02-25T15:26:49.652Z,4.10
2023-02-25T15:32:10.904Z,3.83
2023-02-25T15:37:52.181Z,4.28
2023-02-25T15:42:55.845Z,4.17
2023-02-25T15:48:06.830Z,2.75
2023-02-25T15:53:11.143Z,4.72
2023-02-25T15:58:25.577Z,4.07
2023-02-25T16:03:36.515Z,5.22
2023-02-25T16:08:46.016Z,3.97
2023-02-25T16:13:48.539Z,3.70
2023-02-25T16:18:52.993Z,6.53
2023-02-25T16:24:01.928Z,4.03
2023-02-25T16:29:36.212Z,8.13
2023-02-25T16:34:59.341Z,7.87
2023-02-25T16:40:01.902Z,4.53
2023-02-25T16:45:06.243Z,6.40
2023-02-25T16:50:16.093Z,4.67
2023-02-25T16:55:23.449Z,5.40
2023-02-25T17:00:25.604Z,4.90
2023-02-25T17:05:29.460Z,5.80
2023-02-25T17:10:45.288Z,6.75
2023-02-25T17:15:47.562Z,6.10
2023-02-25T17:20:50.058Z,6.10
2023-02-25T17:25:52.688Z,5.67
2023-02-25T17:31:05.450Z,5.43
2023-02-25T17:36:11.732Z,6.15
2023-02-25T17:41:21.387Z,6.30
2023-02-25T17:46:44.571Z,6.65
2023-02-25T17:51:53.620Z,5.67
2023-02-25T17:57:07.886Z,9.27
2023-02-25T18:02:32.919Z,6.32
2023-02-25T18:07:35.206Z,5.03
2023-02-25T18:12:39.371Z,7.00
2023-02-25T18:17:47.421Z,7.07
2023-02-25T18:22:53.876Z,5.43
2023-02-25T18:27:56.320Z,6.97
2023-02-25T18:32:59.681Z,6.57
2023-02-25T18:38:02.881Z,6.60
2023-02-25T18:43:05.485Z,7.13
2023-02-25T18:48:07.645Z,5.90
2023-02-25T18:53:20.052Z,7.15
2023-02-25T18:58:22.643Z,7.90
2023-02-25T19:03:32.826Z,7.78
2023-02-25T19:08:34.964Z,6.27
2023-02-25T19:13:40.638Z,6.45
2023-02-25T19:18:43.147Z,7.87
2023-02-25T19:23:45.579Z,7.87
2023-02-25T19:28:47.861Z,7.07
2023-02-25T19:33:49.989Z,6.67
2023-02-25T19:38:52.155Z,8.05
2023-02-25T19:43:54.369Z,9.50
2023-02-25T19:48:56.982Z,5.73
2023-02-25T19:53:59.157Z,7.05
2023-02-25T19:59:01.311Z,7.77
2023-02-25T20:04:03.602Z,6.87
2023-02-25T20:09:08.745Z,9.10
2023-02-25T20:14:12.506Z,8.43
2023-02-25T20:19:14.888Z,9.70
2023-02-25T20:24:17.007Z,7.90
2023-02-25T20:29:19.372Z,7.97
2023-02-25T20:34:22.288Z,6.87
2023-02-25T20:39:45.438Z,5.77
2023-02-25T20:44:51.331Z,6.93
2023-02-25T20:49:58.282Z,9.50
2023-02-25T20:55:00.741Z,7.40
2023-02-25T21:00:03.512Z,7.03
2023-02-25T21:05:06.020Z,6.53
2023-02-25T21:10:10.458Z,6.78
2023-02-25T21:15:12.638Z,6.50
2023-02-25T21:20:15.035Z,6.05
2023-02-25T21:25:17.638Z,9.65
2023-02-25T21:30:20.370Z,6.00
2023-02-25T21:35:25.163Z,5.45
2023-02-25T21:40:27.599Z,6.40
2023-02-25T21:45:29.862Z,6.00
2023-02-25T21:50:32.549Z,5.43
2023-02-25T21:55:34.812Z,6.63
2023-02-25T22:00:37.321Z,7.72
2023-02-25T22:05:47.196Z,6.87
2023-02-25T22:10:49.306Z,6.10
2023-02-25T22:15:51.800Z,6.62
2023-02-25T22:21:03.349Z,6.67
2023-02-25T22:26:10.287Z,6.00
2023-02-25T22:31:14.679Z,6.17
2023-02-25T22:36:18.251Z,6.90
2023-02-25T22:41:25.958Z,6.93
2023-02-25T22:46:30.884Z,6.50
2023-02-25T22:51:44.948Z,5.15
2023-02-25T22:56:51.988Z,7.40
2023-02-25T23:01:54.128Z,7.72
2023-02-25T23:06:57.179Z,6.78
2023-02-25T23:12:00.007Z,8.43
2023-02-25T23:17:02.578Z,8.25
2023-02-25T23:22:04.680Z,7.40
2023-02-25T23:27:06.836Z,8.38
2023-02-25T23:32:09.053Z,7.75
2023-02-25T23:37:11.154Z,9.37
2023-02-25T23:42:13.520Z,8.82
2023-02-25T23:47:15.910Z,7.10
2023-02-25T23:52:19.061Z,9.23
2023-02-25T23:57:21.155Z,9.60
